Lindsay, MT

10:05 PM MDT on August 29, 2014 (GMT -0600)
Dawson Community | Change Station
CLOSE
Current Station
Airport
Location: Glendive,
Elevation: 2457 ft
Nearby Weather Stations

Elev 2457 ft 47.14 °N, 104.81 °W | Updated 10 minutes ago

Clear
Clear
59 °F
Feels Like 59 °F
N
5
Wind Variable Wind from ESE

Today
High -- | Low -- °F
--% Chance of Precip.
Yesterday
High -- | Low -- °F
Precip. -- in
6:16 AM 7:46 PM
Waxing Crescent, 18% visible
Pressure 29.98 in
Visibility 10.0 miles
Clouds Clear
Dew Point 52 °F
Humidity 77%
Rainfall 0.19 in
Snow Depth Not available.
UV 0 out of 12
Pollen 8.70 out of 12
Air Quality Not available.
Flu Activity Not available.
METAR KGDV 300355Z AUTO 11004KT 10SM CLR 15/11 A2998 RMK AO1

More Conditions Fewer Conditions

Pressure 29.98 in
Visibility 10.0 miles
Clouds Clear
Dew Point 52 °F
Humidity 77%
Rainfall 0.19 in
Snow Depth Not available.
UV 0 out of 12
Pollen 8.70 out of 12
Air Quality Not available.
Flu Activity Not available.
METAR KGDV 300355Z AUTO 11004KT 10SM CLR 15/11 A2998 RMK AO1

More Conditions Fewer Conditions

10-Day Weather Forecast

Almanac

Astronomy

Aug. 29, 2014 Rise Set
Actual Time 6:16 AM MDT 7:46 PM MDT
Civil Twilight 5:44 AM MDT 8:18 PM MDT
Nautical Twilight 5:05 AM MDT 8:56 PM MDT
Astronomical Twilight 4:23 AM MDT 9:38 PM MDT
Moon 10:26 AM MDT (8/29) 9:26 PM MDT (8/29)
Length of Visible Light 14h 34m
Length of Day
13h 30m
Tomorrow will be 3m 14s shorter.
Waxing Crescent, 18% of the Moon is Illuminated
Aug 30
Waxing Crescent
Sep 2
First Quarter
Sep 8
Full
Sep 15
Last Quarter
Sep 24
New

Today's Extremes

State Highs State Lows

Community

WunderPhotos

Upload Photos

1,748,445 photos uploaded!

Nearby

Snow Depth

Station Depth Elevation
Crystal Lake 0 in 6050 ft
Cole Creek 0 in 7850 ft
Spur Park 0 in 8100 ft
Porcupine 0 in 6500 ft
Onion Park 0 in 7410 ft

Earthquake Activity

City Distance Mag. Time & Date
No recent earthquake activity has been reported nearby.
Minimum magnitude displayed is 2.5.

Coastal Water Temperatures

Place Temperature
No Stations Reporting

Nearby Weather Stations